Cypress Gardens, Louisiana
Current Conditions -  °F | °C
As of 5:53 AM on Monday 20 Oct 2014 (Local Time) from KNEW Reporting Station
Clear Clear  
Wind Chill: 68°   Ceiling: Unl
Heat Index: 68°   Visibility: 10mi
Dew Point: 59°   Wind: 8mph
Humidity: 73%   Direction: 80°E
Pressure: 30.03"   Gusts: NA
Location:  29.9486°N, 89.8975°W
Report Text: KNEW 201053Z AUTO 08007KT 10SM CLR 20/15 A3003 RMK AO2 SLP162 T02000150 TSNO
Loading
Personal Weather Stations






























Interactive Weather Map
Tropical Storm Tracking
New forecast layout! Learn more

10-Day Weather Forecast

Advertisements
Track Severe Weather on mobile